Time;durP1;ratioP1;P1;durP2;ratioP2;P2;SDS_P1;SDS_P2;PMS_P1;PMS_P2;Temp;Humidity;BMP_temperature;BMP_pressure;BME280_temperature;BME280_humidity;BME280_pressure;Samples;Min_cycle;Max_cycle;Signal;HPM_P1;HPM_P2
2021/04/25 04:13:52;;;;;;;0.82;0.82;;;0.50;99.90;;;;;;5053067;28;20100;-70
2021/04/25 04:16:18;;;;;;;1.90;1.10;;;0.60;99.90;;;;;;5054212;28;20120;-70
2021/04/25 04:18:44;;;;;;;1.27;1.02;;;0.60;99.90;;;;;;5054400;28;20375;-70
2021/04/25 04:21:10;;;;;;;1.08;0.95;;;0.60;99.90;;;;;;5040496;28;20477;-69
2021/04/25 04:23:36;;;;;;;3.75;1.15;;;0.60;99.90;;;;;;5048260;28;20112;-69
2021/04/25 04:26:01;;;;;;;0.90;0.82;;;0.70;99.90;;;;;;5045042;28;20436;-70
2021/04/25 04:28:27;;;;;;;0.93;0.90;;;0.70;99.90;;;;;;5040031;28;20032;-69
2021/04/25 04:30:53;;;;;;;1.58;0.98;;;0.70;99.90;;;;;;5044598;28;20029;-71
2021/04/25 04:33:18;;;;;;;2.92;0.98;;;0.80;99.90;;;;;;5048340;28;20029;-68
2021/04/25 04:35:44;;;;;;;0.77;0.77;;;0.70;99.90;;;;;;5041506;28;20481;-73
2021/04/25 04:38:10;;;;;;;2.08;0.88;;;0.80;99.90;;;;;;5039942;28;20496;-69
2021/04/25 04:40:36;;;;;;;1.00;0.88;;;0.80;99.90;;;;;;5045065;28;20032;-68
2021/04/25 04:43:02;;;;;;;4.22;1.00;;;0.90;99.90;;;;;;5052621;28;20025;-69
2021/04/25 04:45:27;;;;;;;4.55;1.38;;;0.90;99.90;;;;;;5045244;28;20036;-70
2021/04/25 04:47:53;;;;;;;4.32;1.10;;;0.90;99.90;;;;;;5049999;28;20021;-67
2021/04/25 04:50:19;;;;;;;2.97;1.02;;;0.90;99.90;;;;;;5050520;28;20178;-67
2021/04/25 04:52:46;;;;;;;6.45;1.20;;;0.90;99.90;;;;;;5052810;28;20492;-69
2021/04/25 04:55:14;;;;;;;1.80;0.93;;;0.90;99.90;;;;;;5042705;28;20044;-69
2021/04/25 04:57:40;;;;;;;2.10;1.20;;;0.90;99.90;;;;;;5044516;28;20477;-69
2021/04/25 05:00:07;;;;;;;0.98;0.77;;;1.00;99.90;;;;;;5052464;28;20024;-73
2021/04/25 05:02:33;;;;;;;1.27;0.80;;;1.00;99.90;;;;;;5052424;28;20045;-69
2021/04/25 05:04:58;;;;;;;0.73;0.73;;;1.00;99.90;;;;;;5044910;28;20056;-70
2021/04/25 05:07:24;;;;;;;1.70;1.00;;;1.10;99.90;;;;;;5049565;28;20021;-69
2021/04/25 05:09:50;;;;;;;3.25;1.70;;;1.10;99.90;;;;;;5051449;28;20033;-69
2021/04/25 05:12:16;;;;;;;1.30;1.05;;;1.10;99.90;;;;;;5046138;28;20025;-68
2021/04/25 05:14:43;;;;;;;1.80;1.10;;;1.20;99.90;;;;;;5049310;28;20128;-69
2021/04/25 05:17:08;;;;;;;2.80;1.05;;;1.20;99.90;;;;;;5052434;28;20029;-69
2021/04/25 05:19:34;;;;;;;3.67;1.20;;;1.20;99.90;;;;;;5052259;28;20030;-69
2021/04/25 05:22:00;;;;;;;1.33;0.80;;;1.20;99.90;;;;;;5038860;28;20523;-70
2021/04/25 05:24:26;;;;;;;4.32;1.20;;;1.20;99.90;;;;;;5052604;28;20068;-70
2021/04/25 05:26:51;;;;;;;6.00;1.13;;;1.20;99.90;;;;;;5052326;28;20033;-70
2021/04/25 05:29:17;;;;;;;1.70;1.10;;;1.20;99.90;;;;;;5052785;28;20025;-69
2021/04/25 05:31:44;;;;;;;0.75;0.75;;;1.40;99.90;;;;;;5052631;28;20497;-69
2021/04/25 05:34:12;;;;;;;2.55;0.90;;;1.40;99.90;;;;;;5052354;28;20503;-70
2021/04/25 05:36:38;;;;;;;1.25;0.77;;;1.40;99.90;;;;;;5052485;28;20029;-69
2021/04/25 05:39:05;;;;;;;1.58;0.80;;;1.40;99.90;;;;;;5052446;28;20100;-69
2021/04/25 05:41:31;;;;;;;4.43;1.45;;;1.30;99.90;;;;;;5052586;28;20036;-69
2021/04/25 05:43:57;;;;;;;2.05;1.10;;;1.40;99.90;;;;;;5052291;28;20033;-69
2021/04/25 05:46:23;;;;;;;1.58;0.80;;;1.30;99.90;;;;;;5052176;28;20473;-69
2021/04/25 05:48:49;;;;;;;1.10;1.00;;;1.30;99.90;;;;;;5049147;28;20025;-69
2021/04/25 05:51:15;;;;;;;1.92;1.10;;;1.40;99.90;;;;;;5046334;28;20051;-70
2021/04/25 05:53:42;;;;;;;2.17;1.00;;;1.40;99.90;;;;;;5047386;28;20384;-69
2021/04/25 05:56:08;;;;;;;2.67;0.98;;;1.40;99.90;;;;;;5051895;28;20024;-69
2021/04/25 05:58:34;;;;;;;0.73;0.70;;;1.40;99.90;;;;;;5051870;28;20024;-69
2021/04/25 06:01:00;;;;;;;1.60;0.93;;;1.30;99.90;;;;;;5051824;28;20497;-69
2021/04/25 06:03:28;;;;;;;3.58;1.10;;;1.40;99.90;;;;;;5050758;28;20051;-69
2021/04/25 06:05:54;;;;;;;1.42;1.02;;;1.70;99.90;;;;;;5048837;28;20033;-69
2021/04/25 06:08:20;;;;;;;4.78;1.30;;;1.80;99.90;;;;;;5032273;28;20473;-68
2021/04/25 06:10:47;;;;;;;1.20;0.82;;;1.70;99.90;;;;;;5052034;28;20021;-68
2021/04/25 06:13:12;;;;;;;1.75;0.77;;;1.70;99.90;;;;;;5051666;28;20031;-69
2021/04/25 06:15:38;;;;;;;1.35;1.00;;;1.70;99.90;;;;;;5051443;28;20045;-70
2021/04/25 06:18:05;;;;;;;2.40;1.02;;;1.60;99.90;;;;;;5051493;28;20067;-69
2021/04/25 06:20:31;;;;;;;1.42;0.82;;;1.70;99.90;;;;;;5044046;28;20035;-69
2021/04/25 06:22:57;;;;;;;1.67;1.00;;;1.70;99.90;;;;;;5036857;28;20025;-69
2021/04/25 06:25:23;;;;;;;2.13;0.90;;;1.70;99.90;;;;;;5040435;28;20041;-70
2021/04/25 06:27:49;;;;;;;2.60;0.80;;;1.70;99.90;;;;;;5042976;28;20362;-69
2021/04/25 06:30:17;;;;;;;1.67;1.00;;;1.70;99.90;;;;;;5049542;28;20021;-69
2021/04/25 06:32:45;;;;;;;3.67;0.95;;;1.70;99.90;;;;;;5043606;28;20021;-70
2021/04/25 06:35:13;;;;;;;2.50;0.98;;;1.80;99.90;;;;;;5044619;28;20681;-70
2021/04/25 06:37:45;;;;;;;4.30;0.98;;;1.80;99.90;;;;;;5048926;28;20043;-69
2021/04/25 06:40:12;;;;;;;2.28;0.90;;;1.80;99.90;;;;;;5051130;28;20068;-70
2021/04/25 06:42:39;;;;;;;1.55;1.10;;;1.80;99.90;;;;;;5051401;28;20029;-71
2021/04/25 06:45:11;;;;;;;5.68;1.00;;;1.80;99.90;;;;;;5050724;28;20025;-70
2021/04/25 06:47:38;;;;;;;2.08;0.93;;;1.80;99.90;;;;;;5051049;28;20504;-70
2021/04/25 06:50:07;;;;;;;2.95;1.10;;;1.90;99.90;;;;;;5050599;28;20473;-69
2021/04/25 06:52:33;;;;;;;1.17;0.77;;;1.90;99.90;;;;;;5051145;28;20031;-70
2021/04/25 06:54:59;;;;;;;1.13;0.85;;;1.90;99.90;;;;;;5050406;28;20021;-71
2021/04/25 06:57:25;;;;;;;2.30;0.80;;;2.00;99.90;;;;;;5043003;28;20025;-70
2021/04/25 06:59:51;;;;;;;2.75;1.13;;;2.00;99.90;;;;;;5044612;28;20040;-69
2021/04/25 07:02:16;;;;;;;2.03;0.95;;;2.00;99.90;;;;;;5049306;28;20032;-69
2021/04/25 07:04:42;;;;;;;1.30;0.82;;;2.00;99.90;;;;;;5048801;28;20032;-69
2021/04/25 07:07:09;;;;;;;5.38;0.95;;;2.00;99.90;;;;;;5051462;28;20028;-69
2021/04/25 07:09:35;;;;;;;1.15;1.00;;;2.10;99.90;;;;;;5050815;28;20381;-68
2021/04/25 07:12:00;;;;;;;3.67;1.00;;;2.10;99.90;;;;;;5050922;28;20025;-67
2021/04/25 07:14:26;;;;;;;0.80;0.80;;;2.20;99.90;;;;;;5051315;28;20074;-70
2021/04/25 07:16:52;;;;;;;2.15;1.13;;;2.30;99.80;;;;;;5051308;28;20033;-70
2021/04/25 07:19:17;;;;;;;2.00;0.98;;;2.30;98.80;;;;;;5051141;28;20059;-70
2021/04/25 07:21:43;;;;;;;1.05;0.93;;;2.30;98.20;;;;;;5051702;28;20116;-69
2021/04/25 07:24:09;;;;;;;1.63;0.93;;;2.20;98.40;;;;;;5050917;28;20044;-67
2021/04/25 07:26:35;;;;;;;3.70;1.10;;;2.30;99.90;;;;;;5051360;28;20029;-67
2021/04/25 07:29:01;;;;;;;0.70;0.70;;;2.80;99.90;;;;;;5051632;28;20124;-67
2021/04/25 07:31:27;;;;;;;2.33;1.00;;;3.00;99.90;;;;;;5054560;28;20056;-67
2021/04/25 07:33:53;;;;;;;6.75;0.90;;;3.00;99.90;;;;;;5055292;28;20036;-67
2021/04/25 07:36:19;;;;;;;1.45;0.95;;;3.10;99.90;;;;;;5055117;28;20024;-66
2021/04/25 07:38:44;;;;;;;1.30;0.90;;;3.10;99.90;;;;;;5055092;28;20057;-67
2021/04/25 07:41:11;;;;;;;1.52;1.08;;;3.20;99.90;;;;;;5054822;28;20039;-67
2021/04/25 07:43:37;;;;;;;1.90;0.90;;;3.00;99.70;;;;;;5055244;28;20048;-67
2021/04/25 07:46:03;;;;;;;1.70;0.85;;;3.20;99.90;;;;;;5053882;28;20531;-67
2021/04/25 07:48:29;;;;;;;3.17;0.95;;;3.40;99.90;;;;;;5054812;28;20388;-67
2021/04/25 07:50:54;;;;;;;2.47;1.15;;;3.60;99.90;;;;;;5054836;28;20067;-67
2021/04/25 07:53:20;;;;;;;1.50;0.82;;;3.50;96.80;;;;;;5055115;28;20492;-67
2021/04/25 07:55:46;;;;;;;3.00;0.90;;;3.60;99.90;;;;;;5054888;28;20553;-67
2021/04/25 07:58:12;;;;;;;0.93;0.80;;;3.60;95.70;;;;;;5054751;28;20025;-66
2021/04/25 08:00:38;;;;;;;3.65;0.95;;;3.40;94.70;;;;;;5054744;28;20465;-67
2021/04/25 08:03:05;;;;;;;3.88;0.90;;;3.30;97.50;;;;;;5054834;28;20040;-67
2021/04/25 08:05:31;;;;;;;2.55;0.98;;;3.10;94.30;;;;;;5054414;28;20501;-67
2021/04/25 08:07:57;;;;;;;2.50;1.08;;;2.90;95.40;;;;;;5054404;28;20098;-67
2021/04/25 08:10:23;;;;;;;4.57;1.00;;;2.80;95.90;;;;;;5054346;28;20032;-65
2021/04/25 08:12:49;;;;;;;3.30;1.10;;;3.00;99.90;;;;;;5054387;28;20025;-67
2021/04/25 08:15:15;;;;;;;1.33;1.05;;;3.30;97.40;;;;;;5054087;28;20052;-66
2021/04/25 08:17:41;;;;;;;3.22;0.73;;;3.20;94.00;;;;;;5054621;28;20404;-64
2021/04/25 08:20:08;;;;;;;1.55;1.00;;;3.10;96.80;;;;;;5054230;28;20029;-66
2021/04/25 08:22:34;;;;;;;3.05;0.98;;;2.90;96.20;;;;;;5054319;28;20021;-66
2021/04/25 08:25:00;;;;;;;1.77;0.90;;;2.80;94.70;;;;;;5052643;28;20055;-70
2021/04/25 08:27:26;;;;;;;1.38;0.80;;;2.70;95.20;;;;;;5054270;28;20027;-70
2021/04/25 08:29:52;;;;;;;2.58;0.98;;;2.60;94.70;;;;;;5054509;28;20447;-70
2021/04/25 08:32:18;;;;;;;2.28;0.95;;;2.60;96.90;;;;;;5053926;28;20109;-71
2021/04/25 08:34:43;;;;;;;3.83;1.15;;;2.60;95.20;;;;;;5053906;28;20035;-71
2021/04/25 08:37:09;;;;;;;3.00;0.82;;;2.50;95.30;;;;;;5053938;28;20024;-71
2021/04/25 08:39:35;;;;;;;1.73;1.00;;;2.60;95.80;;;;;;5054064;28;20029;-70
2021/04/25 08:42:00;;;;;;;2.03;0.90;;;3.00;99.40;;;;;;5053458;28;20498;-70
2021/04/25 08:44:27;;;;;;;2.85;0.90;;;3.10;97.40;;;;;;5053855;28;20042;-70
2021/04/25 08:46:53;;;;;;;1.67;0.90;;;3.10;96.20;;;;;;5054010;28;20078;-68
2021/04/25 08:49:26;;;;;;;0.90;0.90;;;3.00;95.80;;;;;;5053148;28;20025;-67
2021/04/25 08:51:53;;;;;;;1.10;1.00;;;3.00;95.60;;;;;;5050599;28;20028;-67
2021/04/25 08:54:24;;;;;;;1.92;0.95;;;3.00;93.60;;;;;;5056904;28;20037;-67
2021/04/25 08:56:51;;;;;;;1.27;0.90;;;3.00;93.90;;;;;;5065062;28;20055;-68
2021/04/25 08:59:17;;;;;;;2.28;0.95;;;3.10;94.60;;;;;;5058648;28;20495;-68
2021/04/25 09:01:43;;;;;;;2.38;0.82;;;3.10;94.30;;;;;;5053458;28;20670;-71
2021/04/25 09:04:09;;;;;;;1.83;0.90;;;3.10;92.50;;;;;;5053426;28;20033;-71
2021/04/25 09:06:34;;;;;;;3.15;1.15;;;3.10;92.50;;;;;;5053530;28;20599;-70
2021/04/25 09:09:03;;;;;;;1.92;1.33;;;3.10;92.50;;;;;;5053496;28;20468;-71
2021/04/25 09:11:37;;;;;;;2.28;0.85;;;3.10;91.80;;;;;;5053381;28;20028;-70
2021/04/25 09:14:17;;;;;;;1.42;1.00;;;3.10;90.90;;;;;;5053099;28;20060;-71
2021/04/25 09:16:57;;;;;;;2.57;1.37;;;3.00;90.80;;;;;;5053540;28;20029;-70
2021/04/25 09:19:25;;;;;;;1.05;0.95;;;3.10;91.20;;;;;;5051999;28;20621;-71
2021/04/25 09:21:59;;;;;;;2.45;0.90;;;3.00;90.60;;;;;;5053273;28;20111;-71
2021/04/25 09:24:30;;;;;;;0.68;0.68;;;3.00;90.90;;;;;;5053116;28;20129;-70
2021/04/25 09:26:55;;;;;;;;;;;3.00;90.00;;;;;;5053730;28;20167;-70
2021/04/25 09:29:26;;;;;;;1.40;0.90;;;3.00;89.60;;;;;;5053106;28;20403;-69
2021/04/25 09:31:55;;;;;;;1.80;0.75;;;3.00;90.10;;;;;;5053173;28;20055;-70
2021/04/25 09:34:29;;;;;;;1.95;1.10;;;3.10;90.80;;;;;;5052706;28;20025;-69
2021/04/25 09:36:56;;;;;;;2.08;0.70;;;3.20;90.30;;;;;;5052931;28;20017;-69
2021/04/25 09:39:23;;;;;;;3.65;1.02;;;3.20;90.50;;;;;;5052967;28;20107;-70
2021/04/25 09:41:50;;;;;;;4.75;1.00;;;3.20;90.50;;;;;;5053183;28;20032;-69
2021/04/25 09:44:33;;;;;;;3.38;0.80;;;3.20;89.40;;;;;;5052933;28;20081;-70
2021/04/25 09:47:03;;;;;;;2.63;1.00;;;3.20;88.40;;;;;;5051540;28;20025;-69
2021/04/25 09:49:46;;;;;;;3.80;0.98;;;3.80;99.90;;;;;;5052780;28;20587;-66
2021/04/25 09:52:32;;;;;;;0.98;0.75;;;4.10;99.90;;;;;;5051644;28;20166;-70
2021/04/25 09:55:18;;;;;;;0.73;0.60;;;4.80;93.90;;;;;;5052780;28;20070;-70
2021/04/25 09:57:45;;;;;;;1.05;0.60;;;4.40;81.00;;;;;;5052631;28;20103;-70
2021/04/25 10:00:11;;;;;;;3.20;0.75;;;4.10;81.80;;;;;;5052289;28;20120;-70
2021/04/25 10:03:02;;;;;;;1.35;0.80;;;3.90;83.60;;;;;;5052480;28;20061;-70
2021/04/25 10:05:29;;;;;;;0.95;0.73;;;3.80;80.40;;;;;;5052383;28;20094;-70
2021/04/25 10:07:55;;;;;;;0.65;0.60;;;3.80;83.50;;;;;;5052225;28;20079;-70
2021/04/25 10:10:21;;;;;;;3.00;0.85;;;3.70;82.40;;;;;;5051948;28;20033;-70
2021/04/25 10:12:47;;;;;;;3.40;0.93;;;3.80;82.50;;;;;;5052121;28;20029;-70
2021/04/25 10:15:15;;;;;;;0.82;0.82;;;3.80;80.40;;;;;;5051904;28;20476;-70
2021/04/25 10:17:49;;;;;;;1.48;0.80;;;3.80;80.40;;;;;;5052354;28;20024;-70
2021/04/25 10:20:18;;;;;;;0.60;0.60;;;3.80;79.10;;;;;;5051816;28;20025;-70
2021/04/25 10:22:47;;;;;;;0.75;0.60;;;3.80;79.80;;;;;;5051789;28;20028;-70
2021/04/25 10:25:19;;;;;;;0.75;0.75;;;3.80;78.90;;;;;;5052058;28;20033;-70
2021/04/25 10:27:56;;;;;;;1.75;0.73;;;3.90;77.70;;;;;;5051878;28;20594;-70
2021/04/25 10:30:28;;;;;;;0.60;0.60;;;3.90;77.70;;;;;;5051810;28;20037;-70
2021/04/25 10:32:55;;;;;;;2.88;0.90;;;4.00;78.80;;;;;;5051956;28;20039;-70
2021/04/25 10:35:22;;;;;;;2.08;0.63;;;4.10;77.80;;;;;;5051631;28;20621;-70
2021/04/25 10:37:49;;;;;;;1.40;0.70;;;4.10;76.00;;;;;;5051835;28;20025;-70
2021/04/25 10:40:25;;;;;;;1.90;0.90;;;4.10;74.60;;;;;;5051922;28;20029;-70
2021/04/25 10:42:58;;;;;;;1.80;0.82;;;4.10;73.20;;;;;;5051531;28;20387;-70
2021/04/25 10:45:28;;;;;;;1.00;0.70;;;4.20;73.30;;;;;;5051545;28;20362;-70
2021/04/25 10:48:21;;;;;;;0.57;0.57;;;4.20;73.40;;;;;;5051841;28;20048;-70
2021/04/25 10:50:49;;;;;;;1.88;0.88;;;4.30;72.60;;;;;;5051960;28;20028;-70
2021/04/25 10:53:30;;;;;;;2.00;0.75;;;4.30;73.50;;;;;;5043256;28;20485;-70
2021/04/25 10:56:14;;;;;;;;;;;4.40;71.90;;;;;;5031993;28;20065;-70
2021/04/25 10:58:45;;;;;;;2.15;0.65;;;4.50;70.70;;;;;;5031535;28;19909;-70
2021/04/25 11:01:35;;;;;;;0.82;0.70;;;4.50;71.00;;;;;;5031511;28;20014;-70
2021/04/25 11:04:01;;;;;;;0.88;0.88;;;4.50;70.50;;;;;;5033426;28;20030;-70
2021/04/25 11:06:28;;;;;;;0.73;0.73;;;4.50;69.50;;;;;;5035598;28;20037;-70
2021/04/25 11:08:55;;;;;;;1.50;0.65;;;4.60;69.90;;;;;;5035941;28;20029;-70
2021/04/25 11:11:38;;;;;;;1.02;0.70;;;4.60;71.00;;;;;;5035563;28;20025;-70
2021/04/25 11:14:05;;;;;;;1.25;0.77;;;4.60;69.20;;;;;;5035094;28;20385;-70
2021/04/25 11:16:33;;;;;;;1.67;0.98;;;4.70;69.90;;;;;;5035647;28;20042;-70
2021/04/25 11:19:12;;;;;;;2.13;1.00;;;4.70;68.70;;;;;;5049872;28;20082;-70
2021/04/25 11:21:53;;;;;;;2.23;0.90;;;4.80;68.70;;;;;;5055515;28;20103;-70
2021/04/25 11:24:22;;;;;;;0.60;0.60;;;4.80;67.90;;;;;;5054077;28;20037;-71
2021/04/25 11:26:51;;;;;;;2.25;0.70;;;5.40;79.60;;;;;;5055370;28;20048;-71
2021/04/25 11:29:23;;;;;;;2.78;0.77;;;5.60;72.10;;;;;;5054777;28;20124;-70
2021/04/25 11:31:57;;;;;;;1.27;0.80;;;5.50;68.10;;;;;;5044302;28;20063;-70
2021/04/25 11:34:23;;;;;;;1.48;0.70;;;5.30;68.30;;;;;;5054461;28;20056;-72
2021/04/25 11:36:51;;;;;;;2.65;1.05;;;5.20;67.70;;;;;;5053414;28;20453;-70
2021/04/25 11:39:19;;;;;;;1.00;0.70;;;5.10;67.70;;;;;;5053387;28;20028;-79
2021/04/25 11:41:46;;;;;;;0.80;0.80;;;5.30;78.30;;;;;;5052478;28;20049;-70
2021/04/25 11:44:11;;;;;;;1.60;0.70;;;5.80;72.90;;;;;;5053114;28;20037;-71
2021/04/25 11:46:38;;;;;;;1.95;0.98;;;5.70;67.20;;;;;;5054309;28;20032;-73
2021/04/25 11:49:05;;;;;;;3.95;1.45;;;5.60;66.20;;;;;;5054345;28;20021;-70
2021/04/25 11:51:31;;;;;;;2.53;0.90;;;5.50;65.40;;;;;;5054369;28;20442;-70
2021/04/25 11:53:57;;;;;;;1.02;0.70;;;5.40;66.30;;;;;;5054097;28;20029;-70
2021/04/25 11:56:31;;;;;;;1.80;0.60;;;5.40;65.80;;;;;;5053802;28;20114;-69
2021/04/25 11:59:08;;;;;;;1.67;0.80;;;5.40;64.20;;;;;;5054084;28;20481;-70
2021/04/25 12:01:35;;;;;;;0.70;0.70;;;5.30;64.10;;;;;;5052823;28;20051;-70
2021/04/25 12:04:01;;;;;;;1.30;0.60;;;5.30;63.80;;;;;;5055406;28;20036;-70
2021/04/25 12:06:27;;;;;;;2.75;0.70;;;5.30;63.80;;;;;;5053369;28;20483;-71
2021/04/25 12:08:54;;;;;;;3.00;0.68;;;5.30;63.90;;;;;;5053812;28;20017;-70
2021/04/25 12:11:26;;;;;;;1.08;0.70;;;5.40;64.10;;;;;;5053650;28;20384;-70
2021/04/25 12:13:53;;;;;;;0.85;0.70;;;5.40;63.90;;;;;;5054195;28;20472;-71
2021/04/25 12:16:22;;;;;;;0.50;0.50;;;5.40;62.30;;;;;;5053121;28;20184;-70
2021/04/25 12:18:50;;;;;;;1.13;0.80;;;5.30;62.80;;;;;;5052380;28;20033;-70
2021/04/25 12:21:21;;;;;;;1.05;0.55;;;5.30;63.20;;;;;;5052686;28;20029;-71
2021/04/25 12:23:53;;;;;;;0.50;0.50;;;5.30;62.10;;;;;;5051759;28;20036;-70
2021/04/25 12:26:23;;;;;;;1.52;0.68;;;5.30;62.60;;;;;;5054037;28;20094;-70
2021/04/25 12:28:52;;;;;;;1.50;0.70;;;5.40;62.60;;;;;;5054563;28;20166;-71
2021/04/25 12:31:24;;;;;;;0.70;0.60;;;5.40;63.20;;;;;;5054113;28;20049;-71
2021/04/25 12:33:54;;;;;;;3.38;0.70;;;5.40;62.50;;;;;;5054120;28;20021;-70
2021/04/25 12:36:22;;;;;;;1.42;0.70;;;5.40;61.40;;;;;;5054399;28;20037;-71
2021/04/25 12:39:14;;;;;;;3.50;0.65;;;5.30;61.50;;;;;;5054415;28;20052;-71
2021/04/25 12:41:49;;;;;;;1.02;0.60;;;5.30;61.00;;;;;;5053786;28;20039;-71
2021/04/25 12:44:17;;;;;;;2.17;0.70;;;5.30;61.00;;;;;;5053087;28;20021;-71
2021/04/25 12:46:58;;;;;;;1.33;0.80;;;5.40;62.00;;;;;;5053771;28;20067;-71
2021/04/25 12:49:38;;;;;;;0.73;0.65;;;5.40;62.50;;;;;;5052131;28;20104;-71
2021/04/25 12:52:06;;;;;;;0.88;0.60;;;5.50;62.60;;;;;;5033847;28;20034;-71
2021/04/25 12:54:43;;;;;;;0.60;0.60;;;5.60;62.70;;;;;;5033605;28;20070;-71
2021/04/25 12:57:09;;;;;;;2.25;0.75;;;5.60;61.10;;;;;;5033711;28;20036;-71
2021/04/25 12:59:37;;;;;;;0.98;0.60;;;5.60;61.60;;;;;;5033876;28;20029;-71
2021/04/25 13:02:03;;;;;;;0.70;0.70;;;5.60;61.30;;;;;;5033587;28;20674;-71
2021/04/25 13:04:34;;;;;;;1.05;0.70;;;5.60;62.10;;;;;;5033220;28;20180;-71
2021/04/25 13:07:43;;;;;;;1.38;0.60;;;5.60;62.60;;;;;;5033689;28;20512;-71
2021/04/25 13:10:30;;;;;;;0.55;0.50;;;5.70;61.40;;;;;;5033422;28;20029;-71
2021/04/25 13:12:57;;;;;;;0.90;0.75;;;5.60;60.10;;;;;;5033407;28;20029;-71
2021/04/25 13:15:30;;;;;;;2.10;0.80;;;5.50;60.50;;;;;;5033002;28;20528;-70
2021/04/25 13:17:58;;;;;;;1.10;0.80;;;5.50;60.80;;;;;;5044115;28;20515;-70
2021/04/25 13:20:26;;;;;;;1.08;0.70;;;5.60;61.50;;;;;;5052895;28;20021;-71
2021/04/25 13:22:53;;;;;;;2.83;0.80;;;5.60;60.10;;;;;;5053153;28;20028;-71
2021/04/25 13:25:20;;;;;;;0.63;0.63;;;5.60;60.20;;;;;;5053186;28;20040;-70
2021/04/25 13:27:46;;;;;;;2.20;0.70;;;5.60;59.20;;;;;;5051725;28;20025;-71
2021/04/25 13:30:12;;;;;;;2.47;0.90;;;5.60;59.70;;;;;;5052793;28;20036;-70
2021/04/25 13:32:38;;;;;;;0.60;0.60;;;5.60;59.40;;;;;;5052944;28;20021;-70
2021/04/25 13:35:04;;;;;;;0.63;0.60;;;5.60;59.50;;;;;;5053137;28;20028;-73
2021/04/25 13:37:30;;;;;;;0.75;0.70;;;5.50;59.70;;;;;;5052530;28;20488;-70
2021/04/25 13:39:56;;;;;;;1.40;0.80;;;5.60;60.00;;;;;;5052661;28;20033;-70
2021/04/25 13:42:21;;;;;;;0.50;0.50;;;5.60;59.20;;;;;;5052724;28;20021;-70
2021/04/25 13:44:47;;;;;;;1.33;0.60;;;5.50;58.60;;;;;;5052591;28;20061;-70
2021/04/25 13:47:13;;;;;;;1.08;0.57;;;5.50;59.30;;;;;;5052168;28;20064;-70
2021/04/25 13:49:38;;;;;;;0.60;0.60;;;5.60;60.10;;;;;;5052283;28;20028;-70
2021/04/25 13:52:06;;;;;;;1.85;0.60;;;5.60;59.00;;;;;;5052483;28;20079;-70
2021/04/25 13:54:33;;;;;;;1.05;0.68;;;5.60;58.60;;;;;;5052403;28;20025;-70
2021/04/25 13:56:58;;;;;;;0.75;0.65;;;5.60;59.60;;;;;;5051187;28;20021;-70
2021/04/25 13:59:24;;;;;;;0.93;0.47;;;5.60;58.80;;;;;;5052254;28;20127;-70
2021/04/25 14:01:50;;;;;;;0.73;0.60;;;5.60;58.50;;;;;;5051704;28;20021;-70
2021/04/25 14:04:15;;;;;;;1.15;0.60;;;5.60;59.30;;;;;;5052136;28;20037;-70
2021/04/25 14:06:41;;;;;;;1.67;0.60;;;5.60;59.00;;;;;;5052654;28;20120;-69
2021/04/25 14:09:07;;;;;;;1.35;0.70;;;5.60;58.30;;;;;;5052109;28;20025;-70
2021/04/25 14:11:34;;;;;;;0.63;0.60;;;5.60;58.50;;;;;;5052540;28;20029;-70
2021/04/25 14:14:00;;;;;;;1.08;0.60;;;5.60;59.70;;;;;;5052210;28;20081;-70
2021/04/25 14:16:29;;;;;;;1.45;0.60;;;5.70;62.20;;;;;;5050957;28;20041;-70
2021/04/25 14:18:56;;;;;;;1.13;0.60;;;5.80;62.00;;;;;;5052331;28;20430;-70
2021/04/25 14:21:23;;;;;;;0.95;0.60;;;5.90;62.20;;;;;;5052004;28;20079;-70
2021/04/25 14:23:49;;;;;;;1.00;0.90;;;6.00;60.40;;;;;;5051587;28;20021;-71
2021/04/25 14:26:15;;;;;;;0.75;0.60;;;6.00;62.50;;;;;;5051535;28;20044;-71
2021/04/25 14:28:41;;;;;;;0.93;0.57;;;6.00;58.40;;;;;;5051948;28;20396;-71
2021/04/25 14:31:07;;;;;;;1.00;0.70;;;5.90;58.00;;;;;;5052052;28;20024;-71
2021/04/25 14:33:35;;;;;;;1.38;0.63;;;6.00;60.50;;;;;;5051710;28;20064;-71
2021/04/25 14:36:01;;;;;;;0.65;0.65;;;6.00;59.40;;;;;;5052198;28;20411;-71
2021/04/25 14:38:26;;;;;;;1.70;0.68;;;5.90;57.70;;;;;;5051348;28;20028;-71
2021/04/25 14:40:52;;;;;;;0.80;0.70;;;5.80;57.90;;;;;;5051466;28;20043;-71
2021/04/25 14:43:19;;;;;;;0.75;0.63;;;5.90;58.40;;;;;;5051916;28;20017;-71
2021/04/25 14:45:45;;;;;;;1.45;0.70;;;5.90;58.90;;;;;;5051764;28;20036;-70
2021/04/25 14:48:11;;;;;;;1.17;0.60;;;5.90;58.00;;;;;;5050892;28;20033;-71
2021/04/25 14:50:39;;;;;;;1.45;0.80;;;5.80;58.30;;;;;;5051306;28;20079;-71
2021/04/25 14:53:06;;;;;;;1.27;0.90;;;5.80;57.00;;;;;;5048986;28;20017;-71
2021/04/25 14:55:32;;;;;;;0.98;0.85;;;5.70;57.90;;;;;;5051475;28;20056;-71
2021/04/25 14:57:58;;;;;;;4.85;2.33;;;5.60;57.70;;;;;;5051575;28;20021;-71
2021/04/25 15:00:26;;;;;;;1.40;1.10;;;5.60;58.50;;;;;;5051445;28;20032;-70
2021/04/25 15:02:52;;;;;;;1.25;0.75;;;5.60;58.40;;;;;;5051458;28;20033;-70
2021/04/25 15:05:19;;;;;;;2.35;0.90;;;5.60;57.50;;;;;;5051658;28;20064;-70
2021/04/25 15:07:49;;;;;;;0.75;0.75;;;5.50;57.40;;;;;;5051506;28;20025;-70
2021/04/25 15:10:16;;;;;;;6.18;1.00;;;5.50;57.80;;;;;;5051226;28;20025;-70
2021/04/25 15:12:42;;;;;;;1.42;0.60;;;5.90;64.30;;;;;;5051602;28;20032;-71
2021/04/25 15:15:09;;;;;;;0.82;0.63;;;5.80;58.10;;;;;;5051506;28;20048;-71
2021/04/25 15:17:35;;;;;;;0.95;0.60;;;5.70;58.30;;;;;;5051485;28;20021;-71
2021/04/25 15:20:02;;;;;;;0.75;0.75;;;5.60;58.30;;;;;;5051894;28;20044;-71
2021/04/25 15:22:29;;;;;;;1.00;0.65;;;5.60;57.50;;;;;;5051566;28;20376;-71
2021/04/25 15:24:56;;;;;;;4.70;0.90;;;5.60;58.20;;;;;;5051481;28;20552;-70
2021/04/25 15:27:22;;;;;;;1.15;0.68;;;5.60;58.40;;;;;;5051376;28;20041;-70
2021/04/25 15:29:51;;;;;;;0.82;0.70;;;6.00;60.30;;;;;;5051470;28;20028;-70
2021/04/25 15:32:16;;;;;;;2.53;0.63;;;5.80;57.80;;;;;;5050643;28;20135;-70
2021/04/25 15:34:43;;;;;;;1.98;0.70;;;5.70;58.00;;;;;;5050205;28;20167;-70
2021/04/25 15:37:14;;;;;;;0.60;0.60;;;5.60;58.20;;;;;;5050193;28;20102;-70
2021/04/25 15:39:42;;;;;;;0.90;0.82;;;5.60;57.50;;;;;;5047888;28;20527;-70
2021/04/25 15:42:09;;;;;;;3.17;0.77;;;5.50;57.60;;;;;;5050945;28;20485;-70
2021/04/25 15:44:35;;;;;;;0.80;0.77;;;5.40;58.00;;;;;;5051020;28;20040;-72
2021/04/25 15:47:02;;;;;;;1.35;0.60;;;5.40;58.20;;;;;;5051170;28;20451;-71
2021/04/25 15:49:27;;;;;;;1.95;0.80;;;5.40;57.50;;;;;;5050435;28;20496;-71
2021/04/25 15:51:53;;;;;;;0.90;0.63;;;5.30;58.10;;;;;;5054676;28;20150;-72
2021/04/25 15:54:19;;;;;;;1.88;0.70;;;5.30;58.20;;;;;;5054577;28;20104;-71
2021/04/25 15:56:45;;;;;;;3.30;0.60;;;5.30;58.00;;;;;;5054720;28;20013;-70
2021/04/25 15:59:10;;;;;;;0.50;0.50;;;5.30;57.90;;;;;;5054919;28;20052;-70
2021/04/25 16:01:37;;;;;;;13.95;1.15;;;5.30;58.50;;;;;;5053333;28;20480;-72
2021/04/25 16:04:03;;;;;;;6.32;0.73;;;5.40;63.80;;;;;;5054488;28;20480;-70
2021/04/25 16:06:31;;;;;;;1.80;1.17;;;5.70;60.70;;;;;;5054452;28;20049;-71
2021/04/25 16:08:58;;;;;;;0.90;0.80;;;5.70;58.90;;;;;;5054735;28;20040;-71
2021/04/25 16:11:24;;;;;;;0.60;0.60;;;5.60;59.00;;;;;;5054309;28;20115;-71
2021/04/25 16:13:50;;;;;;;1.80;1.00;;;5.60;58.80;;;;;;5054316;28;20392;-72
2021/04/25 16:16:16;;;;;;;0.68;0.68;;;5.50;58.10;;;;;;5054356;28;20607;-71
2021/04/25 16:18:42;;;;;;;1.27;0.80;;;5.50;58.60;;;;;;5054226;28;20178;-72
2021/04/25 16:21:08;;;;;;;1.42;0.70;;;5.50;59.40;;;;;;5054317;28;20068;-72
2021/04/25 16:23:33;;;;;;;0.98;0.70;;;5.50;59.50;;;;;;5054354;28;20095;-72
2021/04/25 16:25:59;;;;;;;1.33;0.90;;;5.50;58.50;;;;;;5054230;28;20389;-71
2021/04/25 16:28:25;;;;;;;0.85;0.85;;;5.50;59.10;;;;;;5053984;28;20032;-71
2021/04/25 16:30:51;;;;;;;0.60;0.60;;;5.60;59.10;;;;;;5054501;28;20033;-71
2021/04/25 16:33:17;;;;;;;0.88;0.70;;;5.50;58.10;;;;;;5052720;28;20404;-71
2021/04/25 16:35:43;;;;;;;1.95;0.73;;;5.40;57.30;;;;;;5054423;28;20512;-72
2021/04/25 16:38:10;;;;;;;0.70;0.70;;;5.30;57.40;;;;;;5054280;28;20508;-77
2021/04/25 16:40:35;;;;;;;1.25;0.52;;;5.30;58.00;;;;;;5054008;28;20035;-76
2021/04/25 16:43:01;;;;;;;1.27;0.70;;;5.20;58.30;;;;;;5054213;28;20112;-76
2021/04/25 16:45:29;;;;;;;1.67;0.90;;;5.20;58.60;;;;;;5053671;28;20115;-76
2021/04/25 16:47:54;;;;;;;1.02;0.65;;;5.20;58.40;;;;;;5054077;28;20025;-76
2021/04/25 16:50:21;;;;;;;0.60;0.60;;;5.20;58.40;;;;;;5053984;28;20384;-77
2021/04/25 16:52:49;;;;;;;1.98;0.90;;;5.20;58.40;;;;;;5053634;28;20029;-77
2021/04/25 16:55:15;;;;;;;2.88;0.80;;;5.10;58.50;;;;;;5053291;28;20455;-74
2021/04/25 16:57:43;;;;;;;1.98;1.35;;;5.20;58.80;;;;;;5053238;28;20024;-75
2021/04/25 17:00:12;;;;;;;1.13;0.75;;;5.10;58.30;;;;;;5053675;28;20117;-74
2021/04/25 17:02:38;;;;;;;1.17;0.73;;;5.10;59.10;;;;;;5053579;28;20029;-74
2021/04/25 17:05:12;;;;;;;1.13;0.70;;;5.10;58.70;;;;;;5053348;28;20108;-73
2021/04/25 17:07:42;;;;;;;0.63;0.57;;;5.10;58.40;;;;;;5053224;28;20079;-74
2021/04/25 17:10:11;;;;;;;0.70;0.70;;;5.10;58.10;;;;;;5053431;28;20078;-78
2021/04/25 17:12:37;;;;;;;0.60;0.60;;;5.10;58.00;;;;;;5053038;28;20079;-78
2021/04/25 17:15:04;;;;;;;1.52;0.68;;;5.10;58.50;;;;;;5052425;28;20045;-79